Time;durP1;ratioP1;P1;durP2;ratioP2;P2;SDS_P1;SDS_P2;PMS_P1;PMS_P2;Temp;Humidity;BMP_temperature;BMP_pressure;BME280_temperature;BME280_humidity;BME280_pressure;Samples;Min_cycle;Max_cycle;Signal;HPM_P1;HPM_P2
2023/05/16 00:00:39;;;;;;;10.50;2.63;;;10.90;99.90;;;;;;5047144;28;20196;-62
2023/05/16 00:03:06;;;;;;;11.00;2.20;;;11.00;99.90;;;;;;5045653;28;20197;-62
2023/05/16 00:05:33;;;;;;;9.47;1.90;;;11.00;99.90;;;;;;5048760;28;20269;-62
2023/05/16 00:08:00;;;;;;;11.87;2.30;;;10.60;99.90;;;;;;5047501;28;20274;-62
2023/05/16 00:10:27;;;;;;;10.33;2.57;;;10.60;99.90;;;;;;5047520;28;20261;-62
2023/05/16 00:12:55;;;;;;;9.13;1.97;;;10.60;99.90;;;;;;5046262;28;20216;-62
2023/05/16 00:15:23;;;;;;;10.20;1.90;;;10.70;99.90;;;;;;5053882;28;20697;-62
2023/05/16 00:17:50;;;;;;;9.73;1.87;;;10.80;99.90;;;;;;5045235;28;20209;-62
2023/05/16 00:20:21;;;;;;;10.90;2.30;;;10.60;99.90;;;;;;5046971;28;20573;-60
2023/05/16 00:22:49;;;;;;;6.53;1.67;;;10.60;99.90;;;;;;5046198;28;20613;-61
2023/05/16 00:25:17;;;;;;;10.27;2.27;;;10.40;99.90;;;;;;5047171;28;20205;-63
2023/05/16 00:27:44;;;;;;;10.37;2.17;;;10.60;99.90;;;;;;5045884;28;20204;-61
2023/05/16 00:30:11;;;;;;;12.93;2.43;;;10.70;99.90;;;;;;5044707;28;20262;-61
2023/05/16 00:32:38;;;;;;;10.53;2.20;;;10.60;99.90;;;;;;5045221;28;20388;-61
2023/05/16 00:35:06;;;;;;;13.43;2.10;;;10.70;99.90;;;;;;5045524;28;20238;-61
2023/05/16 00:37:34;;;;;;;9.33;1.70;;;10.60;99.90;;;;;;5044770;28;20298;-61
2023/05/16 00:40:01;;;;;;;6.80;2.10;;;10.60;99.90;;;;;;5038638;28;20614;-63
2023/05/16 00:42:27;;;;;;;10.17;2.07;;;10.40;99.90;;;;;;5043792;28;20708;-61
2023/05/16 00:44:55;;;;;;;7.13;2.00;;;10.50;99.90;;;;;;5022722;28;20570;-61
2023/05/16 00:47:21;;;;;;;9.40;2.10;;;10.50;99.90;;;;;;5047869;28;20239;-61
2023/05/16 00:49:49;;;;;;;12.20;3.77;;;10.60;99.90;;;;;;5040121;28;20218;-61
2023/05/16 00:52:15;;;;;;;8.03;1.83;;;10.50;99.90;;;;;;5046134;28;20208;-60
2023/05/16 00:54:42;;;;;;;6.37;1.57;;;10.40;99.90;;;;;;5044877;28;20216;-62
2023/05/16 00:57:10;;;;;;;8.00;1.73;;;10.40;99.90;;;;;;5038709;28;20686;-62
2023/05/16 00:59:37;;;;;;;11.90;2.33;;;10.40;99.90;;;;;;5038253;28;20201;-62
2023/05/16 01:02:04;;;;;;;13.43;1.87;;;10.40;99.90;;;;;;5040625;28;20233;-62
2023/05/16 01:04:32;;;;;;;10.40;1.60;;;10.40;99.90;;;;;;5053108;28;20634;-62
2023/05/16 01:07:00;;;;;;;6.83;1.90;;;10.20;99.90;;;;;;5036858;28;20205;-62
2023/05/16 01:09:27;;;;;;;12.60;2.87;;;10.20;99.90;;;;;;5048678;28;20236;-62
2023/05/16 01:12:06;;;;;;;4.40;1.40;;;10.30;99.90;;;;;;5045377;28;20235;-62
2023/05/16 01:15:03;;;;;;;13.77;2.20;;;10.30;99.90;;;;;;5039534;28;20224;-62
2023/05/16 01:17:59;;;;;;;8.03;2.33;;;10.30;99.90;;;;;;5040833;28;20196;-62
2023/05/16 01:20:48;;;;;;;9.43;1.77;;;10.00;99.90;;;;;;5041476;28;20253;-61
2023/05/16 01:23:36;;;;;;;8.63;1.80;;;10.00;99.90;;;;;;5045839;28;20703;-62
2023/05/16 01:26:22;;;;;;;5.80;1.80;;;10.00;99.90;;;;;;5046671;28;20201;-61
2023/05/16 01:28:50;;;;;;;10.80;2.13;;;10.00;99.90;;;;;;5038584;28;20196;-61
2023/05/16 01:31:18;;;;;;;9.20;2.00;;;10.00;99.90;;;;;;5039542;28;21152;-62
2023/05/16 01:33:47;;;;;;;8.13;1.50;;;9.90;99.90;;;;;;5045651;28;20383;-62
2023/05/16 01:36:25;;;;;;;5.37;1.70;;;9.90;99.90;;;;;;5044093;28;20799;-61
2023/05/16 01:39:18;;;;;;;6.23;2.00;;;10.00;99.90;;;;;;5044811;28;20281;-62
2023/05/16 01:41:51;;;;;;;5.00;1.67;;;9.90;99.90;;;;;;5036390;28;20198;-61
2023/05/16 01:44:43;;;;;;;17.37;3.03;;;10.00;99.90;;;;;;5037203;28;20204;-62
2023/05/16 01:47:15;;;;;;;8.40;1.40;;;9.80;99.90;;;;;;5041267;28;20239;-61
2023/05/16 01:49:53;;;;;;;5.87;1.77;;;9.80;99.90;;;;;;5045560;28;20254;-61
2023/05/16 01:52:44;;;;;;;9.03;1.60;;;9.80;99.90;;;;;;5044024;28;20299;-61
2023/05/16 01:55:22;;;;;;;8.07;1.60;;;9.90;99.90;;;;;;5040562;28;20205;-62
2023/05/16 01:57:50;;;;;;;6.90;1.53;;;9.80;99.90;;;;;;5042014;28;20192;-61
2023/05/16 02:00:17;;;;;;;8.47;2.20;;;9.80;99.90;;;;;;5044401;28;20205;-61
2023/05/16 02:02:44;;;;;;;9.83;1.93;;;9.80;99.90;;;;;;5040640;28;20196;-62
2023/05/16 02:05:11;;;;;;;7.63;1.97;;;9.90;99.90;;;;;;5039745;28;20297;-61
2023/05/16 02:07:38;;;;;;;9.80;2.03;;;9.80;99.90;;;;;;5045345;28;20285;-62
2023/05/16 02:10:06;;;;;;;10.17;2.20;;;9.90;99.90;;;;;;5038500;28;20289;-62
2023/05/16 02:12:33;;;;;;;6.10;1.70;;;9.90;99.90;;;;;;5036245;28;20325;-62
2023/05/16 02:15:00;;;;;;;7.23;1.80;;;9.80;99.90;;;;;;5045349;28;20298;-61
2023/05/16 02:17:27;;;;;;;7.73;1.80;;;9.70;99.90;;;;;;5045532;28;20214;-62
2023/05/16 02:19:54;;;;;;;7.70;1.83;;;9.60;99.90;;;;;;5049551;28;20250;-61
2023/05/16 02:22:20;;;;;;;9.37;2.00;;;9.80;99.90;;;;;;5050301;28;20215;-61
2023/05/16 02:24:47;;;;;;;7.30;1.70;;;9.70;99.90;;;;;;5049099;28;20579;-61
2023/05/16 02:27:14;;;;;;;4.67;1.20;;;9.80;99.90;;;;;;5046551;28;20206;-62
2023/05/16 02:29:41;;;;;;;8.37;1.70;;;9.80;99.90;;;;;;5049049;28;20200;-64
2023/05/16 02:32:08;;;;;;;8.93;1.53;;;9.70;99.90;;;;;;5048596;28;20259;-62
2023/05/16 02:34:34;;;;;;;9.87;2.10;;;9.70;99.90;;;;;;5044787;28;20632;-61
2023/05/16 02:37:01;;;;;;;7.50;1.87;;;9.70;99.90;;;;;;5048016;28;20200;-61
2023/05/16 02:39:28;;;;;;;7.87;1.70;;;9.80;99.90;;;;;;5042210;28;20199;-62
2023/05/16 02:41:56;;;;;;;8.17;2.10;;;9.70;99.90;;;;;;5046619;28;20636;-61
2023/05/16 02:44:23;;;;;;;7.47;2.90;;;9.70;99.90;;;;;;5049547;28;20205;-61
2023/05/16 02:46:50;;;;;;;8.77;2.90;;;9.70;99.90;;;;;;5060815;28;20196;-62
2023/05/16 02:49:17;;;;;;;8.67;2.23;;;9.70;99.90;;;;;;5044925;28;20231;-62
2023/05/16 02:51:44;;;;;;;8.60;1.90;;;9.60;99.90;;;;;;5049180;28;20200;-61
2023/05/16 02:54:10;;;;;;;7.27;2.80;;;9.40;99.90;;;;;;5045709;28;20204;-62
2023/05/16 02:56:37;;;;;;;5.70;1.77;;;9.50;99.90;;;;;;5051081;28;20958;-61
2023/05/16 02:59:04;;;;;;;7.93;2.23;;;9.50;99.90;;;;;;5042503;28;20212;-62
2023/05/16 03:01:32;;;;;;;9.53;2.20;;;9.60;99.90;;;;;;5040494;28;20208;-62
2023/05/16 03:03:58;;;;;;;6.43;2.07;;;9.40;99.90;;;;;;5045443;28;20200;-62
2023/05/16 03:06:25;;;;;;;12.00;2.40;;;9.50;99.90;;;;;;5039804;28;20598;-66
2023/05/16 03:08:52;;;;;;;10.83;1.63;;;9.40;99.90;;;;;;5039070;28;20285;-62
2023/05/16 03:11:22;;;;;;;7.87;2.13;;;9.20;99.90;;;;;;5036688;28;20236;-62
2023/05/16 03:13:49;;;;;;;12.00;2.40;;;9.40;99.90;;;;;;5042137;28;20250;-61
2023/05/16 03:16:16;;;;;;;6.43;2.07;;;9.40;99.90;;;;;;5043561;28;20216;-62
2023/05/16 03:18:43;;;;;;;3.40;1.80;;;9.30;99.90;;;;;;5047162;28;20991;-61
2023/05/16 03:21:10;;;;;;;8.30;1.90;;;9.20;99.90;;;;;;5045277;28;20201;-61
2023/05/16 03:23:37;;;;;;;11.33;1.97;;;9.20;99.90;;;;;;5046794;28;20196;-61
2023/05/16 03:26:04;;;;;;;7.60;2.03;;;9.20;99.90;;;;;;5037327;28;20211;-61
2023/05/16 03:28:31;;;;;;;9.60;1.97;;;9.20;99.90;;;;;;5043027;28;20717;-61
2023/05/16 03:30:58;;;;;;;10.87;2.07;;;9.30;99.90;;;;;;5037176;28;20807;-62
2023/05/16 03:33:25;;;;;;;5.80;1.77;;;9.40;99.90;;;;;;5043308;28;20259;-61
2023/05/16 03:35:52;;;;;;;4.60;1.90;;;9.30;99.90;;;;;;5042395;28;20679;-61
2023/05/16 03:38:19;;;;;;;10.07;1.77;;;9.50;99.90;;;;;;5036160;28;20208;-62
2023/05/16 03:40:45;;;;;;;10.97;2.10;;;9.30;99.90;;;;;;5043612;28;20279;-65
2023/05/16 03:43:12;;;;;;;8.73;2.23;;;9.40;99.90;;;;;;5045328;28;20290;-62
2023/05/16 03:45:39;;;;;;;8.77;2.27;;;9.30;99.90;;;;;;5045750;28;20196;-62
2023/05/16 03:48:07;;;;;;;11.73;1.90;;;9.30;99.90;;;;;;5045209;28;20609;-62
2023/05/16 03:50:36;;;;;;;7.07;1.67;;;9.40;99.90;;;;;;5047795;28;20261;-62
2023/05/16 03:53:06;;;;;;;11.17;2.07;;;9.50;99.90;;;;;;5044682;28;20264;-62
2023/05/16 03:55:33;;;;;;;5.47;2.20;;;9.50;99.90;;;;;;5047874;28;20312;-62
2023/05/16 03:58:00;;;;;;;4.63;1.83;;;9.50;99.90;;;;;;5044564;28;20192;-61
2023/05/16 04:00:27;;;;;;;9.53;2.07;;;9.40;99.90;;;;;;5045220;28;20247;-62
2023/05/16 04:02:54;;;;;;;8.67;1.60;;;9.50;99.90;;;;;;5043473;28;20204;-62
2023/05/16 04:05:21;;;;;;;7.00;1.90;;;9.50;99.90;;;;;;5047266;28;20211;-61
2023/05/16 04:07:48;;;;;;;8.67;1.47;;;9.40;99.90;;;;;;5041204;28;20201;-61
2023/05/16 04:10:15;;;;;;;9.47;2.67;;;9.50;99.90;;;;;;5040210;28;20320;-62
2023/05/16 04:12:43;;;;;;;10.20;2.07;;;9.50;99.90;;;;;;5037881;28;20235;-61
2023/05/16 04:15:10;;;;;;;9.93;2.43;;;9.50;99.90;;;;;;5031925;28;21188;-62
2023/05/16 04:17:37;;;;;;;7.47;2.17;;;9.50;99.90;;;;;;5044527;28;20219;-62
2023/05/16 04:20:05;;;;;;;10.87;1.97;;;9.60;99.90;;;;;;5044341;28;20197;-64
2023/05/16 04:22:32;;;;;;;8.83;2.00;;;9.60;99.90;;;;;;5042444;28;20206;-62
2023/05/16 04:24:59;;;;;;;9.17;2.10;;;9.60;99.90;;;;;;5043844;28;20253;-61
2023/05/16 04:27:26;;;;;;;7.00;1.70;;;9.60;99.90;;;;;;5037972;28;20200;-61
2023/05/16 04:29:53;;;;;;;5.97;1.80;;;9.60;99.90;;;;;;5038710;28;21049;-62
2023/05/16 04:32:20;;;;;;;5.43;1.83;;;9.60;99.90;;;;;;5042294;28;20270;-62
2023/05/16 04:34:53;;;;;;;9.90;2.10;;;9.60;99.90;;;;;;5044810;28;20288;-62
2023/05/16 04:37:20;;;;;;;11.10;2.40;;;9.60;99.90;;;;;;5047493;28;20648;-62
2023/05/16 04:39:47;;;;;;;5.80;1.90;;;9.60;99.90;;;;;;5040300;28;20211;-61
2023/05/16 04:42:14;;;;;;;9.80;2.40;;;9.60;99.90;;;;;;5040648;28;20211;-62
2023/05/16 04:44:41;;;;;;;7.87;2.07;;;9.50;99.90;;;;;;5042994;28;20713;-62
2023/05/16 04:47:08;;;;;;;7.20;2.20;;;9.50;99.90;;;;;;5042020;28;20212;-62
2023/05/16 04:49:35;;;;;;;8.37;1.73;;;9.60;99.90;;;;;;5045057;28;20192;-62
2023/05/16 04:52:02;;;;;;;6.87;1.43;;;9.60;99.90;;;;;;5043973;28;20251;-62
2023/05/16 04:54:28;;;;;;;7.70;1.97;;;9.70;99.90;;;;;;5046125;28;20232;-61
2023/05/16 04:56:56;;;;;;;6.53;1.63;;;9.80;99.90;;;;;;5042693;28;20308;-62
2023/05/16 04:59:23;;;;;;;8.50;2.00;;;9.70;99.90;;;;;;5043592;28;20204;-62
2023/05/16 05:01:50;;;;;;;6.93;2.17;;;9.80;99.90;;;;;;5043979;28;20221;-62
2023/05/16 05:04:17;;;;;;;5.37;1.80;;;9.70;99.90;;;;;;5042557;28;20656;-62
2023/05/16 05:06:44;;;;;;;10.93;1.73;;;9.80;99.90;;;;;;5044692;28;20197;-62
2023/05/16 05:09:11;;;;;;;7.13;1.60;;;9.90;99.90;;;;;;5046202;28;20228;-61
2023/05/16 05:11:38;;;;;;;5.23;1.70;;;9.90;99.90;;;;;;5040195;28;20243;-62
2023/05/16 05:14:05;;;;;;;8.10;2.23;;;9.90;99.90;;;;;;5045916;28;20239;-62
2023/05/16 05:16:32;;;;;;;6.47;1.53;;;9.90;99.90;;;;;;5043065;28;20652;-61
2023/05/16 05:18:59;;;;;;;9.43;1.77;;;10.00;99.90;;;;;;5043666;28;20294;-61
2023/05/16 05:21:26;;;;;;;7.70;1.80;;;10.00;99.90;;;;;;5038097;28;20315;-61
2023/05/16 05:23:53;;;;;;;9.23;2.33;;;10.00;99.90;;;;;;5042332;28;20204;-62
2023/05/16 05:26:21;;;;;;;9.80;2.13;;;10.00;99.90;;;;;;5046924;28;20290;-61
2023/05/16 05:28:48;;;;;;;4.97;1.33;;;10.20;99.90;;;;;;5047417;28;20704;-62
2023/05/16 05:31:29;;;;;;;5.50;1.70;;;10.10;99.90;;;;;;5043871;28;20235;-61
2023/05/16 05:33:56;;;;;;;8.40;2.13;;;10.20;99.90;;;;;;5042789;28;20339;-62
2023/05/16 05:36:23;;;;;;;7.67;1.60;;;10.30;99.90;;;;;;5034278;28;20251;-62
2023/05/16 05:38:50;;;;;;;8.97;1.87;;;10.40;99.90;;;;;;5046443;28;20291;-62
2023/05/16 05:41:17;;;;;;;9.47;2.00;;;10.30;99.90;;;;;;5040396;28;20291;-62
2023/05/16 05:43:44;;;;;;;9.97;1.63;;;10.40;99.90;;;;;;5039468;28;20199;-62
2023/05/16 05:46:11;;;;;;;9.73;1.60;;;10.60;99.90;;;;;;5040963;28;21089;-62
2023/05/16 05:48:38;;;;;;;9.07;1.90;;;10.60;99.90;;;;;;5033906;28;20203;-62
2023/05/16 05:51:05;;;;;;;7.80;1.80;;;10.70;99.90;;;;;;5034154;28;21109;-62
2023/05/16 05:53:33;;;;;;;9.23;1.93;;;10.60;99.90;;;;;;5031271;28;20233;-62
2023/05/16 05:56:00;;;;;;;6.07;1.60;;;10.50;99.90;;;;;;5041403;28;20228;-62
2023/05/16 05:58:27;;;;;;;12.20;2.20;;;10.50;99.90;;;;;;5029641;28;20303;-63
2023/05/16 06:00:53;;;;;;;8.23;2.33;;;10.40;99.90;;;;;;5024711;28;20296;-62
2023/05/16 06:03:20;;;;;;;9.27;2.17;;;10.50;99.90;;;;;;4661889;28;10000130;-62
2023/05/16 06:05:48;;;;;;;12.50;2.20;;;10.60;99.90;;;;;;5017298;28;20375;-62
2023/05/16 06:08:14;;;;;;;8.07;2.00;;;10.70;99.90;;;;;;5023970;28;21127;-62
2023/05/16 06:10:42;;;;;;;6.40;1.67;;;10.80;99.90;;;;;;5033956;28;21501;-63
2023/05/16 06:13:08;;;;;;;10.93;1.77;;;10.90;99.90;;;;;;5030546;28;20282;-62
2023/05/16 06:15:35;;;;;;;5.67;1.60;;;10.90;99.90;;;;;;5034156;28;20211;-65
2023/05/16 06:18:02;;;;;;;3.90;1.33;;;10.90;99.90;;;;;;5033542;28;20246;-60
2023/05/16 06:20:29;;;;;;;9.23;2.27;;;11.00;99.90;;;;;;5036380;28;20206;-62
2023/05/16 06:22:56;;;;;;;8.70;1.80;;;10.90;99.90;;;;;;5032791;28;20320;-62
2023/05/16 06:25:23;;;;;;;7.30;1.67;;;11.00;99.90;;;;;;5031245;28;21026;-62
2023/05/16 06:27:50;;;;;;;8.20;1.70;;;11.10;99.90;;;;;;5034860;28;20798;-62
2023/05/16 06:30:17;;;;;;;6.17;1.70;;;11.20;99.90;;;;;;5032774;28;20204;-62
2023/05/16 06:32:44;;;;;;;7.00;2.07;;;11.20;99.90;;;;;;5032321;28;20713;-60
2023/05/16 06:35:11;;;;;;;8.07;1.53;;;11.30;99.90;;;;;;5035387;28;20269;-62
2023/05/16 06:37:38;;;;;;;7.87;1.73;;;11.30;99.90;;;;;;5031090;28;20236;-62
2023/05/16 06:40:08;;;;;;;11.50;1.73;;;11.50;99.90;;;;;;5020159;28;20621;-62
2023/05/16 06:42:35;;;;;;;7.73;1.30;;;11.70;99.90;;;;;;5015116;28;20201;-62
2023/05/16 06:45:02;;;;;;;5.57;1.70;;;11.80;99.90;;;;;;5020130;28;20205;-63
2023/05/16 06:47:29;;;;;;;10.37;1.57;;;12.00;99.90;;;;;;5035170;28;20202;-62
2023/05/16 06:49:56;;;;;;;9.60;1.57;;;12.10;99.90;;;;;;5029499;28;20202;-62
2023/05/16 06:52:24;;;;;;;6.17;1.57;;;12.30;99.90;;;;;;5029208;28;20291;-63
2023/05/16 06:54:51;;;;;;;8.10;1.40;;;12.20;99.90;;;;;;5033466;28;20225;-63
2023/05/16 06:57:18;;;;;;;8.37;1.43;;;12.30;99.90;;;;;;5034823;28;20218;-62
2023/05/16 06:59:45;;;;;;;7.03;1.30;;;12.30;99.90;;;;;;5037420;28;20210;-62
2023/05/16 07:02:12;;;;;;;5.63;1.20;;;12.50;99.90;;;;;;5032222;28;20205;-62
2023/05/16 07:04:39;;;;;;;7.60;1.30;;;12.80;99.90;;;;;;5036506;28;20711;-62
2023/05/16 07:07:09;;;;;;;5.87;1.43;;;12.90;99.90;;;;;;5033030;28;20204;-62
2023/05/16 07:09:36;;;;;;;7.10;1.53;;;13.00;99.90;;;;;;5029936;28;20199;-62
2023/05/16 07:12:04;;;;;;;3.97;1.73;;;13.20;99.90;;;;;;5030590;28;20325;-62
2023/05/16 07:14:31;;;;;;;3.80;1.13;;;13.60;99.90;;;;;;5043459;28;20214;-61
2023/05/16 07:16:58;;;;;;;3.90;1.30;;;13.50;99.90;;;;;;5037404;28;20701;-62
2023/05/16 07:19:25;;;;;;;4.73;1.57;;;13.20;99.90;;;;;;5030632;28;20202;-62
2023/05/16 07:21:52;;;;;;;3.77;1.33;;;13.30;99.90;;;;;;5040497;28;20651;-62
2023/05/16 07:24:20;;;;;;;6.13;1.60;;;13.90;99.90;;;;;;5044560;28;20281;-62
2023/05/16 07:26:46;;;;;;;4.80;1.00;;;13.80;99.90;;;;;;5041119;28;20894;-62
2023/05/16 07:29:14;;;;;;;7.50;2.50;;;14.10;99.90;;;;;;5044704;28;20338;-62
2023/05/16 07:31:41;;;;;;;3.23;0.90;;;14.10;99.90;;;;;;5041382;28;20206;-60
2023/05/16 07:34:09;;;;;;;6.37;1.33;;;13.70;99.90;;;;;;5033250;28;20234;-59
2023/05/16 07:36:37;;;;;;;2.50;0.87;;;13.10;99.90;;;;;;5033184;28;20220;-60
2023/05/16 07:39:04;;;;;;;7.27;1.40;;;12.90;99.90;;;;;;5036346;28;20225;-60
2023/05/16 07:41:31;;;;;;;6.83;1.40;;;12.90;99.90;;;;;;5038814;28;20210;-60
2023/05/16 07:43:58;;;;;;;4.07;1.03;;;13.30;99.90;;;;;;5043356;28;20226;-59
2023/05/16 07:46:25;;;;;;;9.43;1.53;;;13.30;99.90;;;;;;5048338;28;20202;-59
2023/05/16 07:48:52;;;;;;;3.73;1.00;;;13.80;99.90;;;;;;5044976;28;20208;-60
2023/05/16 07:51:19;;;;;;;4.53;1.10;;;13.80;99.90;;;;;;5045335;28;20297;-59
2023/05/16 07:53:46;;;;;;;5.93;1.33;;;14.10;99.90;;;;;;5043051;28;20210;-60
2023/05/16 07:56:13;;;;;;;3.97;1.20;;;13.60;99.90;;;;;;5039700;28;20214;-60
2023/05/16 07:58:40;;;;;;;5.20;1.00;;;13.50;99.90;;;;;;5042128;28;20971;-59
2023/05/16 08:01:07;;;;;;;5.63;1.00;;;13.40;99.90;;;;;;5046327;28;20204;-60
2023/05/16 08:03:35;;;;;;;3.23;0.93;;;13.90;99.90;;;;;;5049369;28;20262;-60
2023/05/16 08:06:02;;;;;;;4.13;1.10;;;13.80;99.90;;;;;;5043830;28;20332;-60
2023/05/16 08:08:29;;;;;;;4.53;0.80;;;14.30;99.90;;;;;;5043973;28;20197;-61
2023/05/16 08:10:56;;;;;;;2.43;0.73;;;14.10;99.90;;;;;;5019461;28;20204;-60
2023/05/16 08:13:24;;;;;;;6.00;1.10;;;14.30;99.90;;;;;;5042167;28;20392;-60
2023/05/16 08:15:51;;;;;;;2.10;0.87;;;14.20;99.90;;;;;;5039503;28;20686;-60
2023/05/16 08:18:18;;;;;;;3.40;1.13;;;14.10;99.90;;;;;;5044335;28;20334;-59
2023/05/16 08:20:48;;;;;;;4.97;1.10;;;14.10;99.90;;;;;;5044869;28;20291;-60
2023/05/16 08:23:15;;;;;;;5.37;1.60;;;14.00;99.90;;;;;;5040429;28;20215;-60
2023/05/16 08:25:42;;;;;;;5.83;0.93;;;13.80;99.90;;;;;;5044326;28;20250;-59
2023/05/16 08:28:09;;;;;;;4.40;0.77;;;13.70;99.90;;;;;;5043626;28;21405;-60
2023/05/16 08:30:36;;;;;;;5.87;1.50;;;13.70;99.90;;;;;;5030626;28;20239;-60
2023/05/16 08:33:04;;;;;;;6.30;1.40;;;13.60;99.90;;;;;;5025439;28;20224;-60
2023/05/16 08:35:31;;;;;;;7.53;1.43;;;13.80;99.90;;;;;;5034635;28;20679;-60
2023/05/16 08:37:59;;;;;;;3.67;1.13;;;13.70;99.90;;;;;;5040749;28;20211;-60
2023/05/16 08:40:27;;;;;;;8.67;2.07;;;13.70;99.90;;;;;;5039058;28;20430;-60
2023/05/16 08:42:54;;;;;;;4.50;1.40;;;13.70;99.90;;;;;;5042545;28;20218;-60
2023/05/16 08:45:22;;;;;;;9.93;2.60;;;13.30;99.90;;;;;;5052109;28;20199;-60
2023/05/16 08:47:50;;;;;;;2.67;1.47;;;13.30;99.90;;;;;;5036329;28;20212;-59
2023/05/16 08:50:17;;;;;;;3.40;1.47;;;13.40;99.90;;;;;;5045665;28;20860;-60
2023/05/16 08:52:49;;;;;;;3.33;0.70;;;13.60;99.90;;;;;;5024380;28;20202;-60
2023/05/16 08:55:18;;;;;;;3.37;0.87;;;14.20;99.90;;;;;;5038307;28;20197;-60
2023/05/16 08:57:45;;;;;;;2.87;0.90;;;14.70;99.90;;;;;;5037533;28;20223;-59
2023/05/16 09:00:13;;;;;;;3.57;1.00;;;14.90;99.90;;;;;;5041153;28;20210;-60
2023/05/16 09:02:41;;;;;;;4.83;1.30;;;14.60;99.90;;;;;;5038379;28;20188;-60
2023/05/16 09:05:11;;;;;;;6.00;1.17;;;15.10;99.90;;;;;;5040287;28;20230;-60
2023/05/16 09:07:38;;;;;;;3.43;1.00;;;15.40;99.90;;;;;;5044632;28;20200;-59
2023/05/16 09:10:07;;;;;;;3.73;1.47;;;16.10;99.90;;;;;;5036376;28;20205;-60
2023/05/16 09:12:34;;;;;;;4.13;0.87;;;15.70;99.90;;;;;;5054934;28;20240;-60
2023/05/16 09:15:03;;;;;;;3.77;1.17;;;14.60;99.90;;;;;;5034740;28;20204;-60
2023/05/16 09:17:38;;;;;;;8.13;1.33;;;13.80;99.90;;;;;;5035424;28;20211;-60
2023/05/16 09:20:10;;;;;;;3.60;0.90;;;13.90;99.90;;;;;;5041870;28;20260;-59
2023/05/16 09:22:38;;;;;;;3.43;1.00;;;14.00;99.90;;;;;;5039090;28;20192;-60
2023/05/16 09:25:06;;;;;;;3.20;0.70;;;13.90;99.90;;;;;;5039080;28;20326;-60
2023/05/16 09:27:47;;;;;;;2.30;0.80;;;14.10;99.90;;;;;;5040453;28;20196;-60
2023/05/16 09:30:17;;;;;;;4.27;0.97;;;14.10;99.90;;;;;;5043166;28;20207;-60
2023/05/16 09:32:44;;;;;;;8.20;1.00;;;14.10;99.90;;;;;;5041079;28;20235;-61
2023/05/16 09:35:16;;;;;;;4.33;0.93;;;13.90;99.90;;;;;;5045039;28;20244;-61
2023/05/16 09:38:03;;;;;;;7.00;0.90;;;13.90;99.90;;;;;;5044985;28;20318;-61
2023/05/16 09:40:30;;;;;;;4.50;1.10;;;14.40;99.90;;;;;;5041274;28;20233;-62
2023/05/16 09:43:05;;;;;;;4.87;0.83;;;14.90;99.90;;;;;;5044476;28;20207;-61
2023/05/16 09:45:33;;;;;;;4.30;0.93;;;15.70;99.90;;;;;;5042757;28;21068;-61
2023/05/16 09:48:06;;;;;;;3.33;1.10;;;16.00;99.90;;;;;;5040094;28;20262;-61
2023/05/16 09:50:34;;;;;;;5.20;1.07;;;15.50;99.90;;;;;;5043978;28;20232;-61
2023/05/16 09:53:02;;;;;;;3.77;0.87;;;16.10;99.90;;;;;;5037305;28;20629;-61
2023/05/16 09:55:30;;;;;;;4.03;1.00;;;15.60;99.90;;;;;;5038405;28;20213;-62
2023/05/16 09:57:57;;;;;;;10.23;1.83;;;15.40;99.90;;;;;;5038883;28;20697;-61
2023/05/16 10:00:31;;;;;;;6.90;1.40;;;15.70;99.90;;;;;;5041229;28;20648;-61
2023/05/16 10:03:02;;;;;;;1.93;0.80;;;15.60;99.90;;;;;;5032354;28;20236;-61
2023/05/16 10:05:32;;;;;;;2.67;1.00;;;15.40;99.90;;;;;;5039699;28;20227;-61
2023/05/16 10:08:02;;;;;;;3.03;0.90;;;15.00;99.90;;;;;;5037477;28;20203;-61
2023/05/16 10:10:30;;;;;;;5.03;1.33;;;14.90;99.90;;;;;;5049897;28;20309;-61
2023/05/16 10:13:00;;;;;;;8.30;1.27;;;14.80;99.90;;;;;;5038423;28;20347;-61
2023/05/16 10:15:28;;;;;;;3.20;0.73;;;14.60;99.90;;;;;;5041274;28;20209;-61
2023/05/16 10:17:59;;;;;;;3.10;1.00;;;14.60;99.90;;;;;;5034005;28;20222;-61
2023/05/16 10:20:26;;;;;;;1.80;0.70;;;14.60;99.90;;;;;;5033045;28;20201;-61
2023/05/16 10:22:55;;;;;;;5.53;1.20;;;14.50;99.90;;;;;;5035038;28;21674;-61
2023/05/16 10:25:32;;;;;;;3.90;1.03;;;14.40;99.90;;;;;;5038185;28;20209;-61
2023/05/16 10:28:01;;;;;;;3.33;0.90;;;14.80;99.90;;;;;;5037472;28;20324;-61
2023/05/16 10:30:28;;;;;;;4.23;0.70;;;15.30;99.90;;;;;;5038787;28;20210;-63
2023/05/16 10:32:56;;;;;;;4.50;1.00;;;15.30;99.90;;;;;;5035188;28;20230;-62
2023/05/16 10:35:23;;;;;;;4.50;1.00;;;15.30;99.90;;;;;;5032305;28;21166;-62
2023/05/16 10:37:51;;;;;;;6.97;1.20;;;14.80;99.90;;;;;;5034623;28;20231;-62
2023/05/16 10:40:19;;;;;;;2.10;0.83;;;14.70;99.90;;;;;;5019791;28;20249;-61
2023/05/16 10:43:00;;;;;;;4.63;1.30;;;14.70;99.90;;;;;;5036663;28;20229;-62
2023/05/16 10:45:27;;;;;;;3.13;0.80;;;15.10;99.90;;;;;;5034709;28;20653;-61
2023/05/16 10:47:59;;;;;;;4.93;1.10;;;15.40;99.90;;;;;;5051230;28;20818;-64
2023/05/16 10:50:33;;;;;;;3.53;1.00;;;15.60;99.90;;;;;;5044016;28;20209;-61
2023/05/16 10:53:27;;;;;;;1.70;0.90;;;15.60;99.90;;;;;;5038724;28;20206;-61
2023/05/16 10:56:00;;;;;;;5.27;1.10;;;15.70;99.90;;;;;;5039654;28;20254;-62
2023/05/16 10:58:39;;;;;;;2.63;1.07;;;16.00;99.90;;;;;;5059011;28;20312;-62
2023/05/16 11:01:17;;;;;;;5.20;1.00;;;16.10;99.90;;;;;;5034856;28;20208;-62
2023/05/16 11:03:59;;;;;;;2.07;0.97;;;16.30;99.90;;;;;;5040176;28;20369;-61
2023/05/16 11:06:41;;;;;;;4.33;1.17;;;15.90;99.90;;;;;;5034933;28;20192;-62
2023/05/16 11:09:14;;;;;;;4.63;1.70;;;15.80;99.90;;;;;;5042286;28;20296;-61
2023/05/16 11:11:50;;;;;;;5.07;1.03;;;15.10;99.90;;;;;;5049014;28;20198;-61
2023/05/16 11:14:21;;;;;;;3.23;1.00;;;14.90;99.90;;;;;;5043173;28;20227;-61
2023/05/16 11:17:10;;;;;;;2.10;1.13;;;15.20;99.90;;;;;;5044903;28;20243;-62
2023/05/16 11:19:44;;;;;;;6.50;1.30;;;15.10;99.90;;;;;;5041931;28;20644;-62
2023/05/16 11:22:22;;;;;;;4.03;1.10;;;15.10;99.90;;;;;;5039760;28;20212;-61
2023/05/16 11:24:56;;;;;;;2.83;0.80;;;15.60;99.90;;;;;;5039003;28;20209;-61
2023/05/16 11:27:24;;;;;;;4.80;1.30;;;15.60;99.90;;;;;;5037966;28;20292;-61
2023/05/16 11:29:52;;;;;;;3.80;1.10;;;15.80;99.90;;;;;;5041743;28;20233;-61
2023/05/16 11:32:23;;;;;;;3.37;0.83;;;16.10;99.90;;;;;;5038673;28;20640;-61
2023/05/16 11:34:51;;;;;;;3.03;1.07;;;15.90;99.90;;;;;;5038312;28;20255;-62
2023/05/16 11:37:19;;;;;;;4.00;0.93;;;15.90;99.90;;;;;;5043203;28;20212;-61
2023/05/16 11:39:46;;;;;;;4.27;1.07;;;16.40;99.90;;;;;;5037306;28;20893;-61
2023/05/16 11:42:13;;;;;;;4.60;1.10;;;16.80;99.90;;;;;;5038047;28;20292;-62
2023/05/16 11:44:40;;;;;;;5.07;1.17;;;16.30;99.90;;;;;;5033675;28;20228;-61
2023/05/16 11:47:07;;;;;;;3.37;1.00;;;16.30;99.90;;;;;;5039999;28;20238;-61
2023/05/16 11:49:34;;;;;;;2.53;0.97;;;16.10;99.90;;;;;;5035340;28;20200;-63
2023/05/16 11:52:03;;;;;;;4.83;1.00;;;16.30;99.90;;;;;;5034498;28;20216;-60
2023/05/16 11:54:31;;;;;;;3.83;0.87;;;16.40;99.90;;;;;;5031855;28;20210;-60
2023/05/16 11:56:58;;;;;;;2.60;1.00;;;16.00;99.90;;;;;;5039758;28;21135;-60
2023/05/16 11:59:25;;;;;;;3.17;0.97;;;15.70;99.90;;;;;;5036064;28;20260;-60
2023/05/16 12:01:52;;;;;;;3.23;1.03;;;15.40;99.90;;;;;;5039506;28;20271;-60
2023/05/16 12:04:19;;;;;;;2.93;0.80;;;15.10;99.90;;;;;;5042318;28;20212;-59
2023/05/16 12:06:59;;;;;;;4.17;1.13;;;14.90;99.90;;;;;;5039062;28;20239;-60
2023/05/16 12:09:26;;;;;;;3.13;0.90;;;15.20;99.90;;;;;;5035259;28;20201;-60
2023/05/16 12:11:53;;;;;;;5.97;1.10;;;15.10;99.90;;;;;;5029188;28;20304;-60
2023/05/16 12:14:21;;;;;;;3.03;0.80;;;15.20;99.90;;;;;;5035502;28;20261;-60
2023/05/16 12:16:50;;;;;;;4.87;0.93;;;15.20;99.90;;;;;;5041317;28;20793;-60
2023/05/16 12:19:17;;;;;;;1.40;0.73;;;15.30;99.90;;;;;;5042259;28;21008;-59
2023/05/16 12:21:44;;;;;;;15.63;10.83;;;14.90;99.90;;;;;;5034363;28;20206;-60
2023/05/16 12:24:11;;;;;;;4.97;1.87;;;14.90;99.90;;;;;;5035311;28;20203;-60
2023/05/16 12:26:41;;;;;;;4.97;1.80;;;14.90;99.90;;;;;;5047245;28;20206;-60
2023/05/16 12:29:10;;;;;;;3.97;1.37;;;14.80;99.90;;;;;;5043696;28;20263;-60
2023/05/16 12:31:40;;;;;;;4.03;2.60;;;15.10;99.90;;;;;;5048691;28;20290;-60
2023/05/16 12:34:19;;;;;;;5.07;1.90;;;15.00;99.90;;;;;;5041159;28;20705;-59
2023/05/16 12:36:51;;;;;;;11.90;5.43;;;15.00;99.90;;;;;;5037493;28;20298;-60
2023/05/16 12:39:19;;;;;;;5.87;2.63;;;14.80;99.90;;;;;;5037545;28;20212;-59
2023/05/16 12:41:46;;;;;;;7.63;1.70;;;14.80;99.90;;;;;;5034367;28;20661;-60
2023/05/16 12:44:18;;;;;;;3.73;1.40;;;14.70;99.90;;;;;;5031648;28;20797;-60
2023/05/16 12:46:50;;;;;;;4.23;1.60;;;14.60;99.90;;;;;;5033479;28;21170;-60
2023/05/16 12:49:21;;;;;;;2.37;0.90;;;14.50;99.90;;;;;;5036507;28;20228;-60
2023/05/16 12:51:53;;;;;;;3.67;0.93;;;14.60;99.90;;;;;;5040552;28;20220;-60
2023/05/16 12:54:24;;;;;;;3.57;0.90;;;14.70;99.90;;;;;;5042077;28;20566;-60
2023/05/16 12:56:51;;;;;;;5.67;1.30;;;14.70;99.90;;;;;;5038935;28;20679;-59